This is the latest recevied weather packets stored in our database for station/object K6JWN. If no packets are shown the sender has not sent any weather packets the latest 10 day(s).
| Time | Temp. | Humidity | Pressure | Rain* | Wind** | Luminosity | Snow |
|---|---|---|---|---|---|---|---|
| 1778228356 | 12.78° C | 74% | 1015.7 hPa | 0 mm | - | - | - |
| 1778227756 | 12.78° C | 74% | 1015.7 hPa | 0 mm | - | - | - |
| 1778227157 | 12.78° C | 73% | 1015.6 hPa | 0 mm | - | - | - |
| 1778226556 | 13.33° C | 72% | 1015.6 hPa | 0 mm | - | - | - |
| 1778225956 | 13.33° C | 71% | 1015.5 hPa | 0 mm | - | - | - |
| 1778225357 | 13.33° C | 70% | 1015.5 hPa | 0 mm | - | - | - |
| 1778224756 | 13.89° C | 69% | 1015.6 hPa | 0 mm | - | - | - |
| 1778224156 | 13.89° C | 68% | 1015.5 hPa | 0 mm | - | - | - |
| 1778223555 | 14.44° C | 67% | 1015.5 hPa | 0 mm | - | - | - |
| 1778222956 | 14.44° C | 66% | 1015.4 hPa | 0 mm | - | - | - |
| 1778222356 | 14.44° C | 66% | 1015.4 hPa | 0 mm | - | - | - |
| 1778221756 | 15° C | 65% | 1015.5 hPa | 0 mm | - | - | - |
| 1778221158 | 15° C | 65% | 1015.3 hPa | 0 mm | - | - | - |
| 1778220558 | 15° C | 65% | 1015.2 hPa | 0 mm | - | - | - |
| 1778219957 | 15° C | 64% | 1015.2 hPa | 0 mm | - | - | - |
| 1778219357 | 15.56° C | 64% | 1015.4 hPa | 0 mm | - | - | - |
| 1778218758 | 16.11° C | 63% | 1015.4 hPa | 0 mm | - | - | - |
| 1778218158 | 16.11° C | 63% | 1015.3 hPa | 0 mm | - | - | - |
| 1778217557 | 16.11° C | 63% | 1015.2 hPa | 0 mm | - | - | - |
| 1778216958 | 16.67° C | 63% | 1015.1 hPa | 0 mm | - | - | - |
| 1778216357 | 16.67° C | 63% | 1014.9 hPa | 0 mm | - | - | - |
| 1778215758 | 17.22° C | 63% | 1014.9 hPa | 0 mm | - | - | - |
| 1778215157 | 17.22° C | 62% | 1014.7 hPa | 0 mm | - | - | - |
| 1778214558 | 17.78° C | 62% | 1014.6 hPa | 0 mm | - | - | - |
| 1778213958 | 17.78° C | 62% | 1014.4 hPa | 0 mm | - | - | - |
* Rain latest hour (hover to see other rain measurements)
** Current wind speed in m/s (hover to see current wind gust speed)